createdAt,value
2018-04-24T00:00:55.243Z,1010.21
2018-04-24T00:01:55.234Z,1010.23
2018-04-24T00:02:55.213Z,1010.23
2018-04-24T00:03:55.200Z,1010.26
2018-04-24T00:04:55.181Z,1010.31
2018-04-24T00:05:55.198Z,1010.28
2018-04-24T00:06:55.165Z,1010.32
2018-04-24T00:07:55.133Z,1010.35
2018-04-24T00:08:55.120Z,1010.37
2018-04-24T00:09:55.109Z,1010.40
2018-04-24T00:10:55.085Z,1010.40
2018-04-24T00:11:55.069Z,1010.36
2018-04-24T00:12:55.067Z,1010.40
2018-04-24T00:13:55.038Z,1010.36
2018-04-24T00:14:55.019Z,1010.40
2018-04-24T00:15:55.006Z,1010.37
2018-04-24T00:16:54.988Z,1010.36
2018-04-24T00:17:54.970Z,1010.33
2018-04-24T00:18:54.953Z,1010.29
2018-04-24T00:19:54.943Z,1010.29
2018-04-24T00:20:54.927Z,1010.20
2018-04-24T00:21:54.908Z,1010.21
2018-04-24T00:22:54.890Z,1010.12
2018-04-24T00:23:54.877Z,1010.09
2018-04-24T00:24:54.857Z,1010.09
2018-04-24T00:25:54.839Z,1010.02
2018-04-24T00:26:54.828Z,1010.01
2018-04-24T00:27:54.808Z,1010.01
2018-04-24T00:28:54.791Z,1010.04
2018-04-24T00:29:54.786Z,1010.09
2018-04-24T00:30:54.762Z,1010.11
2018-04-24T00:31:54.747Z,1010.13
2018-04-24T00:32:54.791Z,1010.16
2018-04-24T00:33:54.711Z,1010.10
2018-04-24T00:34:54.696Z,1010.11
2018-04-24T00:35:54.686Z,1010.12
2018-04-24T00:36:54.662Z,1010.10
2018-04-24T00:37:54.647Z,1010.12
2018-04-24T00:38:54.629Z,1010.11
2018-04-24T00:39:54.618Z,1010.09
2018-04-24T00:40:54.599Z,1010.08
2018-04-24T00:41:54.580Z,1010.04
2018-04-24T00:42:54.574Z,1009.98
2018-04-24T00:43:54.558Z,1009.98
2018-04-24T00:44:54.530Z,1009.90
2018-04-24T00:45:54.541Z,1009.89
2018-04-24T00:46:54.512Z,1009.85
2018-04-24T00:47:54.486Z,1009.81
2018-04-24T00:48:54.604Z,1009.80
2018-04-24T00:49:54.448Z,1009.74
2018-04-24T00:50:54.435Z,1009.69
2018-04-24T00:51:54.470Z,1009.68
2018-04-24T00:52:54.398Z,1009.65
2018-04-24T00:53:54.385Z,1009.61
2018-04-24T00:54:54.369Z,1009.65
2018-04-24T00:55:54.350Z,1009.73
2018-04-24T00:56:54.331Z,1009.71
2018-04-24T00:57:54.314Z,1009.69
2018-04-24T00:58:54.297Z,1009.67
2018-04-24T00:59:54.283Z,1009.70
2018-04-24T01:00:54.274Z,1009.66
2018-04-24T01:01:54.250Z,1009.65
2018-04-24T01:02:54.234Z,1009.71
2018-04-24T01:03:54.217Z,1009.68
2018-04-24T01:04:54.196Z,1009.65
2018-04-24T01:05:54.203Z,1009.68
2018-04-24T01:06:54.167Z,1009.72
2018-04-24T01:07:54.147Z,1009.71
2018-04-24T01:08:54.138Z,1009.68
2018-04-24T01:09:54.118Z,1009.65
2018-04-24T01:10:54.097Z,1009.68
2018-04-24T01:11:54.082Z,1009.65
2018-04-24T01:12:54.063Z,1009.66
2018-04-24T01:13:54.048Z,1009.68
2018-04-24T01:14:54.033Z,1009.65
2018-04-24T01:15:54.107Z,1009.66
2018-04-24T01:16:53.997Z,1009.72
2018-04-24T01:17:53.983Z,1009.74
2018-04-24T01:18:54.066Z,1009.67
2018-04-24T01:19:53.946Z,1009.68
2018-04-24T01:20:53.933Z,1009.62
2018-04-24T01:21:53.914Z,1009.63
2018-04-24T01:22:53.896Z,1009.66
2018-04-24T01:23:53.884Z,1009.68
2018-04-24T01:24:53.864Z,1009.68
2018-04-24T01:25:53.847Z,1009.70
2018-04-24T01:26:53.832Z,1009.70
2018-04-24T01:27:53.813Z,1009.68
2018-04-24T01:28:53.796Z,1009.71
2018-04-24T01:29:53.781Z,1009.71
2018-04-24T01:30:53.767Z,1009.73
2018-04-24T01:31:53.747Z,1009.67
2018-04-24T01:32:53.731Z,1009.61
2018-04-24T01:33:53.712Z,1009.67
2018-04-24T01:34:53.706Z,1009.64
2018-04-24T01:35:53.680Z,1009.56
2018-04-24T01:36:53.661Z,1009.58
2018-04-24T01:37:53.662Z,1009.61
2018-04-24T01:38:53.634Z,1009.63
2018-04-24T01:39:53.611Z,1009.65
2018-04-24T01:40:53.594Z,1009.60
2018-04-24T01:41:53.580Z,1009.59
2018-04-24T01:42:53.566Z,1009.58
2018-04-24T01:43:53.543Z,1009.54
2018-04-24T01:44:53.525Z,1009.54
2018-04-24T01:45:53.509Z,1009.57
2018-04-24T01:46:53.493Z,1009.54
2018-04-24T01:47:53.475Z,1009.53
2018-04-24T01:48:53.459Z,1009.50
2018-04-24T01:49:53.450Z,1009.50
2018-04-24T01:50:53.423Z,1009.46
2018-04-24T01:51:53.407Z,1009.50
2018-04-24T01:52:53.388Z,1009.47
2018-04-24T01:53:53.398Z,1009.53
2018-04-24T01:54:53.357Z,1009.56
2018-04-24T01:55:53.339Z,1009.54
2018-04-24T01:56:53.330Z,1009.59
2018-04-24T01:57:53.304Z,1009.55
2018-04-24T01:58:53.315Z,1009.54
2018-04-24T01:59:53.271Z,1009.54
2018-04-24T02:00:53.251Z,1009.57
2018-04-24T02:01:53.285Z,1009.60
2018-04-24T02:02:53.222Z,1009.60
2018-04-24T02:03:53.203Z,1009.58
2018-04-24T02:04:53.290Z,1009.56
2018-04-24T02:05:53.177Z,1009.55
2018-04-24T02:06:53.153Z,1009.54
2018-04-24T02:07:53.159Z,1009.47
2018-04-24T02:08:53.141Z,1009.45
2018-04-24T02:09:53.100Z,1009.43
2018-04-24T02:10:53.083Z,1009.43
2018-04-24T02:11:53.067Z,1009.46
2018-04-24T02:12:53.048Z,1009.54
2018-04-24T02:13:53.033Z,1009.55
2018-04-24T02:14:53.017Z,1009.55
2018-04-24T02:15:52.998Z,1009.52
2018-04-24T02:16:52.986Z,1009.49
2018-04-24T02:17:52.967Z,1009.40
2018-04-24T02:18:52.946Z,1009.39
2018-04-24T02:19:52.931Z,1009.38
2018-04-24T02:20:52.914Z,1009.34
2018-04-24T02:21:52.898Z,1009.44
2018-04-24T02:22:52.879Z,1009.44
2018-04-24T02:23:52.881Z,1009.45
2018-04-24T02:24:52.850Z,1009.49
2018-04-24T02:25:52.827Z,1009.47
2018-04-24T02:26:52.814Z,1009.47
2018-04-24T02:27:52.795Z,1009.47
2018-04-24T02:28:52.773Z,1009.45
2018-04-24T02:29:52.756Z,1009.46
2018-04-24T02:30:52.740Z,1009.63
2018-04-24T02:31:52.734Z,1009.53
2018-04-24T02:32:52.706Z,1009.53
2018-04-24T02:33:52.706Z,1009.55
2018-04-24T02:34:52.678Z,1009.58
2018-04-24T02:35:52.659Z,1009.59
2018-04-24T02:36:52.665Z,1009.62
2018-04-24T02:37:52.618Z,1009.64
2018-04-24T02:38:52.602Z,1009.66
2018-04-24T02:39:52.586Z,1009.68
2018-04-24T02:40:52.582Z,1009.67
2018-04-24T02:41:52.553Z,1009.68
2018-04-24T02:42:52.613Z,1009.68
2018-04-24T02:43:52.515Z,1009.57
2018-04-24T02:44:52.498Z,1009.54
2018-04-24T02:45:52.482Z,1009.55
2018-04-24T02:46:52.467Z,1009.47
2018-04-24T02:47:52.457Z,1009.49
2018-04-24T02:48:52.427Z,1009.42
2018-04-24T02:49:52.415Z,1009.37
2018-04-24T02:50:52.401Z,1009.30
2018-04-24T02:51:52.376Z,1009.32
2018-04-24T02:52:52.362Z,1009.37
2018-04-24T02:53:52.349Z,1009.34
2018-04-24T02:54:52.324Z,1009.33
2018-04-24T02:55:52.312Z,1009.37
2018-04-24T02:56:52.292Z,1009.31
2018-04-24T02:57:52.272Z,1009.32
2018-04-24T02:58:52.253Z,1009.23
2018-04-24T02:59:52.245Z,1009.28
2018-04-24T03:00:52.221Z,1009.25
2018-04-24T03:01:52.205Z,1009.30
2018-04-24T03:02:52.184Z,1009.34
2018-04-24T03:03:52.170Z,1009.37
2018-04-24T03:04:52.165Z,1009.40
2018-04-24T03:05:52.132Z,1009.42
2018-04-24T03:06:52.115Z,1009.43
2018-04-24T03:07:52.102Z,1009.33
2018-04-24T03:08:52.080Z,1009.30
2018-04-24T03:09:52.094Z,1009.21
2018-04-24T03:10:52.043Z,1009.15
2018-04-24T03:11:52.097Z,1009.14
2018-04-24T03:12:52.041Z,1009.18
2018-04-24T03:13:51.990Z,1009.15
2018-04-24T03:14:51.975Z,1009.20
2018-04-24T03:15:51.958Z,1009.17
2018-04-24T03:16:51.937Z,1009.16
2018-04-24T03:17:51.920Z,1009.18
2018-04-24T03:18:51.902Z,1009.17
2018-04-24T03:19:51.888Z,1009.17
2018-04-24T03:20:51.872Z,1009.21
2018-04-24T03:21:51.849Z,1009.26
2018-04-24T03:22:51.833Z,1009.28
2018-04-24T03:23:51.815Z,1009.33
2018-04-24T03:24:51.805Z,1009.32
2018-04-24T03:25:51.781Z,1009.34
2018-04-24T03:26:51.763Z,1009.34
2018-04-24T03:27:51.749Z,1009.36
2018-04-24T03:28:51.777Z,1009.34
2018-04-24T03:29:51.712Z,1009.32
2018-04-24T03:30:51.692Z,1009.31
2018-04-24T03:31:51.688Z,1009.33
2018-04-24T03:32:51.659Z,1009.27
2018-04-24T03:33:51.647Z,1009.25
2018-04-24T03:34:51.630Z,1009.29
2018-04-24T03:35:51.607Z,1009.25
2018-04-24T03:36:51.618Z,1009.30
2018-04-24T03:37:51.570Z,1009.31
2018-04-24T03:38:51.553Z,1009.37
2018-04-24T03:39:51.550Z,1009.39
2018-04-24T03:40:51.516Z,1009.28
2018-04-24T03:41:51.495Z,1009.24
2018-04-24T03:42:51.489Z,1009.24
2018-04-24T03:43:51.460Z,1009.23
2018-04-24T03:44:51.451Z,1009.24
2018-04-24T03:45:51.446Z,1009.23
2018-04-24T03:46:51.407Z,1009.10
2018-04-24T03:47:51.390Z,1009.11
2018-04-24T03:48:51.370Z,1009.13
2018-04-24T03:49:51.354Z,1009.13
2018-04-24T03:50:51.338Z,1009.15
2018-04-24T03:51:51.328Z,1009.12
2018-04-24T03:52:51.299Z,1009.20
2018-04-24T03:53:51.282Z,1009.22
2018-04-24T03:54:51.265Z,1009.14
2018-04-24T03:55:51.261Z,1009.21
2018-04-24T03:56:51.229Z,1009.23
2018-04-24T03:57:51.214Z,1009.18
2018-04-24T03:58:51.201Z,1009.21
2018-04-24T03:59:51.176Z,1009.25
2018-04-24T04:00:51.167Z,1009.27
2018-04-24T04:01:51.145Z,1009.26
2018-04-24T04:02:51.123Z,1009.36
2018-04-24T04:03:51.104Z,1009.37
2018-04-24T04:04:51.085Z,1009.41
2018-04-24T04:05:51.076Z,1009.41
2018-04-24T04:06:51.053Z,1009.39
2018-04-24T04:07:51.044Z,1009.42
2018-04-24T04:08:51.021Z,1009.39
2018-04-24T04:09:50.998Z,1009.38
2018-04-24T04:10:50.983Z,1009.37
2018-04-24T04:11:51.103Z,1009.38
2018-04-24T04:12:50.945Z,1009.44
2018-04-24T04:13:50.929Z,1009.45
2018-04-24T04:14:51.012Z,1009.41
2018-04-24T04:15:50.977Z,1009.35
2018-04-24T04:16:50.873Z,1009.38
2018-04-24T04:17:50.856Z,1009.35
2018-04-24T04:18:50.838Z,1009.38
2018-04-24T04:19:50.822Z,1009.43
2018-04-24T04:20:50.806Z,1009.29
2018-04-24T04:21:50.787Z,1009.32
2018-04-24T04:22:50.765Z,1009.37
2018-04-24T04:23:50.752Z,1009.38
2018-04-24T04:24:50.732Z,1009.42
2018-04-24T04:25:50.713Z,1009.39
2018-04-24T04:26:50.704Z,1009.43
2018-04-24T04:27:50.755Z,1009.41
2018-04-24T04:28:50.660Z,1009.40
2018-04-24T04:29:50.653Z,1009.36
2018-04-24T04:30:50.648Z,1009.37
2018-04-24T04:31:50.609Z,1009.40
2018-04-24T04:32:50.617Z,1009.41
2018-04-24T04:33:50.581Z,1009.39
2018-04-24T04:34:50.557Z,1009.33
2018-04-24T04:35:50.540Z,1009.29
2018-04-24T04:36:50.520Z,1009.31
2018-04-24T04:37:50.503Z,1009.29
2018-04-24T04:38:50.490Z,1009.28
2018-04-24T04:39:50.469Z,1009.28
2018-04-24T04:40:50.450Z,1009.29
2018-04-24T04:41:50.434Z,1009.30
2018-04-24T04:42:50.414Z,1009.29
2018-04-24T04:43:50.398Z,1009.32
2018-04-24T04:44:50.379Z,1009.39
2018-04-24T04:45:50.370Z,1009.32
2018-04-24T04:46:50.344Z,1009.35
2018-04-24T04:47:50.353Z,1009.43
2018-04-24T04:48:50.309Z,1009.37
2018-04-24T04:49:50.300Z,1009.41
2018-04-24T04:50:50.275Z,1009.43
2018-04-24T04:51:50.268Z,1009.45
2018-04-24T04:52:50.238Z,1009.49
2018-04-24T04:53:50.220Z,1009.48
2018-04-24T04:54:50.266Z,1009.43
2018-04-24T04:55:50.187Z,1009.46
2018-04-24T04:56:50.168Z,1009.50
2018-04-24T04:57:50.154Z,1009.53
2018-04-24T04:58:50.132Z,1009.57
2018-04-24T04:59:50.119Z,1009.46
2018-04-24T05:00:50.097Z,1009.51
2018-04-24T05:01:50.080Z,1009.57
2018-04-24T05:02:50.062Z,1009.55
2018-04-24T05:03:50.047Z,1009.58
2018-04-24T05:04:50.043Z,1009.65
2018-04-24T05:05:50.017Z,1009.58
2018-04-24T05:06:49.998Z,1009.74
2018-04-24T05:07:49.986Z,1009.68
2018-04-24T05:08:49.961Z,1009.70
2018-04-24T05:09:49.943Z,1009.69
2018-04-24T05:10:49.934Z,1009.74
2018-04-24T05:11:49.917Z,1009.74
2018-04-24T05:12:49.889Z,1009.76
2018-04-24T05:13:49.885Z,1009.77
2018-04-24T05:14:49.856Z,1009.77
2018-04-24T05:15:49.839Z,1009.73
2018-04-24T05:16:49.829Z,1009.78
2018-04-24T05:17:49.806Z,1009.73
2018-04-24T05:18:49.786Z,1009.74
2018-04-24T05:19:49.766Z,1009.73
2018-04-24T05:20:49.750Z,1009.74
2018-04-24T05:21:49.744Z,1009.69
2018-04-24T05:22:49.715Z,1009.69
2018-04-24T05:23:49.701Z,1009.70
2018-04-24T05:24:49.682Z,1009.70
2018-04-24T05:25:49.664Z,1009.75
2018-04-24T05:26:49.648Z,1009.78
2018-04-24T05:27:49.629Z,1009.79
2018-04-24T05:28:49.619Z,1009.78
2018-04-24T05:29:49.605Z,1009.73
2018-04-24T05:30:49.577Z,1009.77
2018-04-24T05:31:49.559Z,1009.77
2018-04-24T05:32:49.594Z,1009.73
2018-04-24T05:33:49.533Z,1009.75
2018-04-24T05:34:49.509Z,1009.78
2018-04-24T05:35:49.518Z,1009.78
2018-04-24T05:36:49.475Z,1009.77
2018-04-24T05:37:49.474Z,1009.82
2018-04-24T05:38:49.460Z,1009.80
2018-04-24T05:39:49.427Z,1009.86
2018-04-24T05:40:49.460Z,1009.86
2018-04-24T05:41:49.387Z,1009.84
2018-04-24T05:42:49.391Z,1009.94
2018-04-24T05:43:49.363Z,1009.83
2018-04-24T05:44:49.336Z,1009.84
2018-04-24T05:45:49.316Z,1009.81
2018-04-24T05:46:49.303Z,1009.85
2018-04-24T05:47:49.285Z,1009.88
2018-04-24T05:48:49.268Z,1009.87
2018-04-24T05:49:49.253Z,1009.86
2018-04-24T05:50:49.234Z,1009.84
2018-04-24T05:51:49.216Z,1009.88
2018-04-24T05:52:49.198Z,1009.89
2018-04-24T05:53:49.181Z,1009.86
2018-04-24T05:54:49.163Z,1009.84
2018-04-24T05:55:49.151Z,1009.85
2018-04-24T05:56:49.206Z,1009.86
2018-04-24T05:57:49.182Z,1009.93
2018-04-24T05:58:49.096Z,1009.93
2018-04-24T05:59:49.089Z,1009.85
2018-04-24T06:00:49.060Z,1009.89
2018-04-24T06:01:49.043Z,1009.94
2018-04-24T06:02:49.030Z,1009.89
2018-04-24T06:03:49.020Z,1009.90
2018-04-24T06:04:49.000Z,1009.93
2018-04-24T06:05:48.980Z,1009.87
2018-04-24T06:06:48.959Z,1009.90
2018-04-24T06:07:48.941Z,1009.81
2018-04-24T06:08:48.924Z,1009.86
2018-04-24T06:09:48.909Z,1009.84
2018-04-24T06:10:48.892Z,1009.83
2018-04-24T06:11:48.874Z,1009.80
2018-04-24T06:12:48.893Z,1009.76
2018-04-24T06:13:48.841Z,1009.80
2018-04-24T06:14:48.823Z,1009.78
2018-04-24T06:15:48.911Z,1009.81
2018-04-24T06:16:48.791Z,1009.76
2018-04-24T06:17:48.773Z,1009.74
2018-04-24T06:18:48.757Z,1009.76
2018-04-24T06:19:48.745Z,1009.72
2018-04-24T06:20:48.724Z,1009.73
2018-04-24T06:21:48.711Z,1009.63
2018-04-24T06:22:48.694Z,1009.63
2018-04-24T06:23:48.673Z,1009.58
2018-04-24T06:24:48.658Z,1009.55
2018-04-24T06:25:48.639Z,1009.54
2018-04-24T06:26:48.622Z,1009.59
2018-04-24T06:27:48.607Z,1009.56
2018-04-24T06:28:48.593Z,1009.61
2018-04-24T06:29:48.572Z,1009.60
2018-04-24T06:30:48.566Z,1009.60
2018-04-24T06:31:48.545Z,1009.61
2018-04-24T06:32:48.531Z,1009.59
2018-04-24T06:33:48.504Z,1009.64
2018-04-24T06:34:48.487Z,1009.70
2018-04-24T06:35:48.472Z,1009.69
2018-04-24T06:36:48.479Z,1009.68
2018-04-24T06:37:48.436Z,1009.67
2018-04-24T06:38:48.443Z,1009.54
2018-04-24T06:39:48.405Z,1009.59
2018-04-24T06:40:48.389Z,1009.54
2018-04-24T06:41:48.367Z,1009.50
2018-04-24T06:42:48.356Z,1009.66
2018-04-24T06:43:48.338Z,1009.69
2018-04-24T06:44:48.328Z,1009.72
2018-04-24T06:45:48.308Z,1009.73
2018-04-24T06:46:48.287Z,1009.73
2018-04-24T06:47:48.282Z,1009.76
2018-04-24T06:48:48.254Z,1009.79
2018-04-24T06:49:48.239Z,1009.80
2018-04-24T06:50:48.220Z,1009.83
2018-04-24T06:51:48.215Z,1009.85
2018-04-24T06:52:48.334Z,1009.86
2018-04-24T06:53:48.178Z,1009.90
2018-04-24T06:54:48.159Z,1009.93
2018-04-24T06:55:48.194Z,1009.96
2018-04-24T06:56:48.121Z,1009.94
2018-04-24T06:57:48.104Z,1009.95
2018-04-24T06:58:48.095Z,1009.94
2018-04-24T06:59:48.074Z,1009.90
2018-04-24T07:00:48.140Z,1009.93
2018-04-24T07:01:48.037Z,1009.95
2018-04-24T07:02:48.042Z,1009.95
2018-04-24T07:03:48.008Z,1009.98
2018-04-24T07:04:47.987Z,1009.98
2018-04-24T07:05:47.974Z,1009.98
2018-04-24T07:06:47.954Z,1010.01
2018-04-24T07:07:47.937Z,1009.98
2018-04-24T07:08:47.920Z,1009.94
2018-04-24T07:09:47.909Z,1009.96
2018-04-24T07:10:47.893Z,1010.00
2018-04-24T07:11:47.893Z,1010.02
2018-04-24T07:12:47.864Z,1010.08
2018-04-24T07:13:47.848Z,1010.11
2018-04-24T07:14:47.825Z,1010.05
2018-04-24T07:15:47.806Z,1009.95
2018-04-24T07:16:47.841Z,1009.96
2018-04-24T07:17:47.773Z,1009.94
2018-04-24T07:18:47.755Z,1009.88
2018-04-24T07:19:47.744Z,1009.84
2018-04-24T07:20:47.724Z,1009.87
2018-04-24T07:21:47.709Z,1009.85
2018-04-24T07:22:47.693Z,1009.92
2018-04-24T07:23:47.675Z,1009.99
2018-04-24T07:24:47.787Z,1009.97
2018-04-24T07:25:47.642Z,1010.03
2018-04-24T07:26:47.624Z,1010.02
2018-04-24T07:27:47.681Z,1010.04
2018-04-24T07:28:47.596Z,1010.06
2018-04-24T07:29:47.588Z,1010.08
2018-04-24T07:30:47.562Z,1010.10
2018-04-24T07:31:47.549Z,1010.13
2018-04-24T07:32:47.586Z,1010.14
2018-04-24T07:33:47.512Z,1010.10
2018-04-24T07:34:47.504Z,1010.17
2018-04-24T07:35:47.484Z,1010.15
2018-04-24T07:36:47.464Z,1010.21
2018-04-24T07:37:47.457Z,1010.18
2018-04-24T07:38:47.441Z,1010.17
2018-04-24T07:39:47.420Z,1010.20
2018-04-24T07:40:47.467Z,1010.19
2018-04-24T07:41:47.384Z,1010.15
2018-04-24T07:42:47.369Z,1010.09
2018-04-24T07:43:47.444Z,1010.12
2018-04-24T07:44:47.338Z,1010.14
2018-04-24T07:45:47.320Z,1010.18
2018-04-24T07:46:47.376Z,1010.20
2018-04-24T07:47:47.290Z,1010.20
2018-04-24T07:48:47.442Z,1010.25
2018-04-24T07:49:47.267Z,1010.27
2018-04-24T07:50:47.240Z,1010.26
2018-04-24T07:51:47.237Z,1010.27
2018-04-24T07:52:47.210Z,1010.26
2018-04-24T07:53:47.192Z,1010.25
2018-04-24T07:54:47.179Z,1010.28
2018-04-24T07:55:47.164Z,1010.22
2018-04-24T07:56:47.155Z,1010.28
2018-04-24T07:57:47.134Z,1010.29
2018-04-24T07:58:47.117Z,1010.30
2018-04-24T07:59:47.101Z,1010.20
2018-04-24T08:00:47.084Z,1010.29
2018-04-24T08:01:47.077Z,1010.28
2018-04-24T08:02:47.058Z,1010.36
2018-04-24T08:03:47.037Z,1010.43
2018-04-24T08:04:47.024Z,1010.42
2018-04-24T08:05:47.006Z,1010.44
2018-04-24T08:06:46.991Z,1010.45
2018-04-24T08:07:47.071Z,1010.41
2018-04-24T08:08:46.963Z,1010.43
2018-04-24T08:09:46.945Z,1010.38
2018-04-24T08:10:46.929Z,1010.37
2018-04-24T08:11:46.918Z,1010.38
2018-04-24T08:12:46.897Z,1010.34
2018-04-24T08:13:46.893Z,1010.33
2018-04-24T08:14:46.865Z,1010.35
2018-04-24T08:15:46.862Z,1010.37
2018-04-24T08:16:46.850Z,1010.38
2018-04-24T08:17:46.827Z,1010.36
2018-04-24T08:18:46.806Z,1010.35
2018-04-24T08:19:46.797Z,1010.40
2018-04-24T08:20:46.777Z,1010.42
2018-04-24T08:21:46.760Z,1010.44
2018-04-24T08:22:46.829Z,1010.42
2018-04-24T08:23:46.822Z,1010.47
2018-04-24T08:24:46.716Z,1010.49
2018-04-24T08:25:46.694Z,1010.52
2018-04-24T08:26:46.734Z,1010.42
2018-04-24T08:27:46.685Z,1010.45
2018-04-24T08:28:46.659Z,1010.41
2018-04-24T08:29:46.633Z,1010.44
2018-04-24T08:30:46.616Z,1010.45
2018-04-24T08:31:46.603Z,1010.49
2018-04-24T08:32:46.584Z,1010.46
2018-04-24T08:33:46.704Z,1010.50
2018-04-24T08:34:46.555Z,1010.59
2018-04-24T08:35:46.538Z,1010.54
2018-04-24T08:36:46.528Z,1010.50
2018-04-24T08:37:46.511Z,1010.52
2018-04-24T08:38:46.498Z,1010.53
2018-04-24T08:39:46.593Z,1010.51
2018-04-24T08:40:46.467Z,1010.49
2018-04-24T08:41:46.443Z,1010.54
2018-04-24T08:42:46.431Z,1010.55
2018-04-24T08:43:46.414Z,1010.52
2018-04-24T08:44:46.397Z,1010.50
2018-04-24T08:45:46.391Z,1010.57
2018-04-24T08:46:46.374Z,1010.57
2018-04-24T08:47:46.439Z,1010.56
2018-04-24T08:48:46.337Z,1010.58
2018-04-24T08:49:46.321Z,1010.60
2018-04-24T08:50:46.305Z,1010.58
2018-04-24T08:51:46.294Z,1010.61
2018-04-24T08:52:46.283Z,1010.60
2018-04-24T08:53:46.262Z,1010.66
2018-04-24T08:54:46.250Z,1010.63
2018-04-24T08:55:46.225Z,1010.67
2018-04-24T08:56:46.209Z,1010.62
2018-04-24T08:57:46.205Z,1010.64
2018-04-24T08:58:46.193Z,1010.63
2018-04-24T08:59:46.168Z,1010.60
2018-04-24T09:00:46.161Z,1010.58
2018-04-24T09:01:46.140Z,1010.56
2018-04-24T09:02:46.119Z,1010.53
2018-04-24T09:03:46.185Z,1010.57
2018-04-24T09:04:46.128Z,1010.59
2018-04-24T09:05:46.070Z,1010.57
2018-04-24T09:06:46.104Z,1010.57
2018-04-24T09:07:46.042Z,1010.60
2018-04-24T09:08:46.039Z,1010.58
2018-04-24T09:09:46.011Z,1010.58
2018-04-24T09:10:45.999Z,1010.50
2018-04-24T09:11:45.991Z,1010.54
2018-04-24T09:12:45.993Z,1010.53
2018-04-24T09:13:45.967Z,1010.52
2018-04-24T09:14:45.937Z,1010.55
2018-04-24T09:15:45.923Z,1010.49
2018-04-24T09:16:45.907Z,1010.48
2018-04-24T09:17:45.932Z,1010.53
2018-04-24T09:18:45.878Z,1010.52
2018-04-24T09:19:45.874Z,1010.56
2018-04-24T09:20:45.857Z,1010.53
2018-04-24T09:21:45.837Z,1010.59
2018-04-24T09:22:45.851Z,1010.66
2018-04-24T09:23:45.816Z,1010.68
2018-04-24T09:24:45.788Z,1010.64
2018-04-24T09:25:45.775Z,1010.65
2018-04-24T09:26:45.764Z,1010.61
2018-04-24T09:27:45.748Z,1010.54
2018-04-24T09:28:45.729Z,1010.55
2018-04-24T09:29:45.713Z,1010.58
2018-04-24T09:30:45.716Z,1010.55
2018-04-24T09:31:45.695Z,1010.56
2018-04-24T09:32:45.672Z,1010.51
2018-04-24T09:33:45.659Z,1010.54
2018-04-24T09:34:45.644Z,1010.64
2018-04-24T09:35:45.628Z,1010.55
2018-04-24T09:36:45.612Z,1010.52
2018-04-24T09:37:45.597Z,1010.57
2018-04-24T09:38:45.591Z,1010.59
2018-04-24T09:39:45.572Z,1010.57
2018-04-24T09:40:45.555Z,1010.59
2018-04-24T09:41:45.555Z,1010.57
2018-04-24T09:42:45.527Z,1010.63
2018-04-24T09:43:45.515Z,1010.72
2018-04-24T09:44:45.514Z,1010.72
2018-04-24T09:45:45.489Z,1010.73
2018-04-24T09:46:45.483Z,1010.83
2018-04-24T09:47:45.468Z,1010.80
2018-04-24T09:48:45.477Z,1010.77
2018-04-24T09:49:45.449Z,1010.77
2018-04-24T09:50:45.420Z,1010.79
2018-04-24T09:51:45.405Z,1010.81
2018-04-24T09:52:45.397Z,1010.85
2018-04-24T09:53:45.381Z,1010.81
2018-04-24T09:54:45.363Z,1010.75
2018-04-24T09:55:45.351Z,1010.80
2018-04-24T09:56:45.373Z,1010.78
2018-04-24T09:57:45.325Z,1010.77
2018-04-24T09:58:45.310Z,1010.86
2018-04-24T09:59:45.306Z,1010.79
2018-04-24T10:00:45.284Z,1010.89
2018-04-24T10:01:45.265Z,1010.85
2018-04-24T10:02:45.271Z,1010.84
2018-04-24T10:03:45.249Z,1010.80
2018-04-24T10:04:45.224Z,1010.79
2018-04-24T10:05:45.226Z,1010.78
2018-04-24T10:06:45.199Z,1010.79
2018-04-24T10:07:45.266Z,1010.77
2018-04-24T10:08:45.172Z,1010.73
2018-04-24T10:09:45.154Z,1010.77
2018-04-24T10:10:45.148Z,1010.84
2018-04-24T10:11:45.130Z,1010.82
2018-04-24T10:12:45.112Z,1010.82
2018-04-24T10:13:45.132Z,1010.81
2018-04-24T10:14:45.099Z,1010.84
2018-04-24T10:15:45.098Z,1010.84
2018-04-24T10:16:45.060Z,1010.78
2018-04-24T10:17:45.045Z,1010.79
2018-04-24T10:18:45.045Z,1010.79
2018-04-24T10:19:45.105Z,1010.83
2018-04-24T10:20:45.000Z,1010.82
2018-04-24T10:21:45.003Z,1010.88
2018-04-24T10:22:44.991Z,1010.88
2018-04-24T10:23:44.962Z,1010.94
2018-04-24T10:24:44.949Z,1010.92
2018-04-24T10:25:44.932Z,1010.91
2018-04-24T10:26:44.927Z,1010.91
2018-04-24T10:27:44.909Z,1010.91
2018-04-24T10:28:44.890Z,1010.89
2018-04-24T10:29:44.892Z,1010.90
2018-04-24T10:30:44.863Z,1010.79
2018-04-24T10:31:44.853Z,1010.74
2018-04-24T10:32:44.836Z,1010.78
2018-04-24T10:33:44.823Z,1010.73
2018-04-24T10:34:44.813Z,1010.66
2018-04-24T10:35:44.797Z,1010.67
2018-04-24T10:36:44.779Z,1010.71
2018-04-24T10:37:44.774Z,1010.68
2018-04-24T10:38:44.753Z,1010.63
2018-04-24T10:39:44.738Z,1010.64
2018-04-24T10:40:44.733Z,1010.63
2018-04-24T10:41:44.716Z,1010.63
2018-04-24T10:42:44.696Z,1010.61
2018-04-24T10:43:44.757Z,1010.56
2018-04-24T10:44:44.670Z,1010.57
2018-04-24T10:45:44.703Z,1010.59
2018-04-24T10:46:44.645Z,1010.61
2018-04-24T10:47:44.627Z,1010.60
2018-04-24T10:48:44.625Z,1010.63
2018-04-24T10:49:44.601Z,1010.60
2018-04-24T10:50:44.590Z,1010.61
2018-04-24T10:51:44.620Z,1010.58
2018-04-24T10:52:44.560Z,1010.60
2018-04-24T10:53:44.558Z,1010.60
2018-04-24T10:54:44.536Z,1010.63
2018-04-24T10:55:44.527Z,1010.59
2018-04-24T10:56:44.506Z,1010.56
2018-04-24T10:57:44.496Z,1010.54
2018-04-24T10:58:44.478Z,1010.55
2018-04-24T10:59:44.476Z,1010.55
2018-04-24T11:00:44.469Z,1010.55
2018-04-24T11:01:44.439Z,1010.56
2018-04-24T11:02:44.425Z,1010.57
2018-04-24T11:03:44.418Z,1010.63
2018-04-24T11:04:44.559Z,1010.73
2018-04-24T11:05:44.383Z,1010.68
2018-04-24T11:06:44.467Z,1010.59
2018-04-24T11:07:44.361Z,1010.66
2018-04-24T11:08:44.354Z,1010.70
2018-04-24T11:09:44.340Z,1010.62
2018-04-24T11:10:44.326Z,1010.55
2018-04-24T11:11:44.308Z,1010.51
2018-04-24T11:12:44.294Z,1010.54
2018-04-24T11:13:44.305Z,1010.59
2018-04-24T11:14:44.269Z,1010.60
2018-04-24T11:15:44.257Z,1010.67
2018-04-24T11:16:44.245Z,1010.58
2018-04-24T11:17:44.249Z,1010.64
2018-04-24T11:18:44.217Z,1010.71
2018-04-24T11:19:44.207Z,1010.68
2018-04-24T11:20:44.298Z,1010.68
2018-04-24T11:21:44.180Z,1010.67
2018-04-24T11:22:44.280Z,1010.67
2018-04-24T11:23:44.176Z,1010.69
2018-04-24T11:24:44.148Z,1010.74
2018-04-24T11:25:44.170Z,1010.78
2018-04-24T11:26:44.180Z,1010.70
2018-04-24T11:27:44.115Z,1010.71
2018-04-24T11:28:44.095Z,1010.65
2018-04-24T11:29:44.084Z,1010.65
2018-04-24T11:30:44.078Z,1010.66
2018-04-24T11:31:44.065Z,1010.61
2018-04-24T11:32:44.051Z,1010.60
2018-04-24T11:33:44.034Z,1010.61
2018-04-24T11:34:44.027Z,1010.62
2018-04-24T11:35:44.012Z,1010.63
2018-04-24T11:36:44.076Z,1010.63
2018-04-24T11:37:43.985Z,1010.65
2018-04-24T11:38:43.983Z,1010.68
2018-04-24T11:39:43.961Z,1010.67
2018-04-24T11:40:43.953Z,1010.66
2018-04-24T11:41:43.947Z,1010.67
2018-04-24T11:42:43.923Z,1010.65
2018-04-24T11:43:43.913Z,1010.76
2018-04-24T11:44:43.900Z,1010.74
2018-04-24T11:45:43.894Z,1010.76
2018-04-24T11:46:43.875Z,1010.74
2018-04-24T11:47:43.864Z,1010.67
2018-04-24T11:48:43.858Z,1010.74
2018-04-24T11:49:43.930Z,1010.73
2018-04-24T11:50:43.826Z,1010.78
2018-04-24T11:51:43.992Z,1010.77
2018-04-24T11:52:43.800Z,1010.74
2018-04-24T11:53:43.790Z,1010.82
2018-04-24T11:54:43.890Z,1010.83
2018-04-24T11:55:43.765Z,1010.81
2018-04-24T11:56:43.762Z,1010.83
2018-04-24T11:57:43.765Z,1010.83
2018-04-24T11:58:43.721Z,1010.81
2018-04-24T11:59:43.714Z,1010.78
2018-04-24T12:00:43.701Z,1010.76
2018-04-24T12:01:43.699Z,1010.77
2018-04-24T12:02:43.686Z,1010.79
2018-04-24T12:03:43.666Z,1010.84
2018-04-24T12:04:43.650Z,1010.82
2018-04-24T12:05:43.633Z,1010.78